Terminal Aerodrome Forecast
Issued by NWS

Home | Current Version | Previous Version | Graphics & Text | Print | Product List | Glossary On
Versions: 1 2 3 4 5 6 7 8 9 10 11 12 13 14 15 16 17 18 19 20
000
FTUS43 KGRB 261500 AAA
TAFCWA
TAF AMD
KCWA 261540Z 2616/2712 30009G14KT P6SM OVC021
     FM262000 29009G14KT P6SM SCT021 SCT100 BKN200
     FM270200 31003KT P6SM BKN150
     FM270500 35003KT P6SM SCT070 BKN120=

USA.gov is the U.S. government's official web portal to all federal, state and local government web resources and services.